Time;durP1;ratioP1;P1;durP2;ratioP2;P2;SDS_P1;SDS_P2;PMS_P1;PMS_P2;Temp;Humidity;BMP_temperature;BMP_pressure;BME280_temperature;BME280_humidity;BME280_pressure;Samples;Min_cycle;Max_cycle;Signal;HPM_P1;HPM_P2
2021/04/27 00:00:16;;;;;;;6.32;3.20;;;8.10;42.90;;;;;;5065078;28;20033;-63
2021/04/27 00:02:44;;;;;;;8.40;3.22;;;8.10;43.00;;;;;;5058445;28;21551;-63
2021/04/27 00:05:14;;;;;;;5.30;2.72;;;8.00;43.00;;;;;;5067308;28;20039;-61
2021/04/27 00:07:42;;;;;;;4.68;2.95;;;8.00;43.00;;;;;;5066324;28;20024;-63
2021/04/27 00:10:13;;;;;;;4.88;3.22;;;8.00;42.90;;;;;;5060650;28;20057;-63
2021/04/27 00:12:41;;;;;;;7.25;3.00;;;8.00;43.10;;;;;;5058153;28;20033;-62
2021/04/27 00:15:13;;;;;;;3.45;2.63;;;7.90;43.00;;;;;;5065652;28;20445;-63
2021/04/27 00:17:40;;;;;;;5.95;3.13;;;7.90;43.30;;;;;;5063510;28;20064;-63
2021/04/27 00:20:12;;;;;;;4.68;3.20;;;7.80;43.40;;;;;;5058127;28;20059;-63
2021/04/27 00:22:40;;;;;;;7.30;3.20;;;7.80;43.70;;;;;;5066574;28;20509;-62
2021/04/27 00:25:11;;;;;;;5.95;2.78;;;7.70;43.70;;;;;;5061848;28;20580;-63
2021/04/27 00:27:36;;;;;;;4.78;3.10;;;7.60;43.80;;;;;;5065126;28;20513;-64
2021/04/27 00:30:06;;;;;;;3.53;2.97;;;7.60;43.90;;;;;;5061330;28;20133;-63
2021/04/27 00:32:37;;;;;;;6.80;3.08;;;7.50;44.20;;;;;;5059072;28;20028;-63
2021/04/27 00:35:08;;;;;;;5.63;2.95;;;7.40;44.30;;;;;;5064717;28;20037;-63
2021/04/27 00:37:36;;;;;;;6.57;3.42;;;7.40;44.50;;;;;;5065261;28;20594;-63
2021/04/27 00:40:06;;;;;;;5.57;2.97;;;7.30;44.60;;;;;;5060643;28;20024;-61
2021/04/27 00:42:39;;;;;;;4.95;3.55;;;7.20;44.60;;;;;;5062140;28;20048;-63
2021/04/27 00:45:11;;;;;;;7.22;3.25;;;7.10;44.80;;;;;;5065825;28;20414;-63
2021/04/27 00:47:38;;;;;;;6.93;3.30;;;7.10;44.90;;;;;;5063064;28;20033;-62
2021/04/27 00:50:08;;;;;;;8.18;3.60;;;7.00;45.00;;;;;;5058485;28;20037;-64
2021/04/27 00:52:39;;;;;;;5.93;2.95;;;6.90;45.10;;;;;;5062186;28;20096;-63
2021/04/27 00:55:11;;;;;;;3.88;2.95;;;6.90;45.10;;;;;;5058306;28;20033;-63
2021/04/27 00:57:41;;;;;;;5.45;3.25;;;6.90;45.20;;;;;;5064149;28;20082;-63
2021/04/27 01:00:13;;;;;;;4.93;3.13;;;6.90;45.20;;;;;;5061982;28;20039;-63
2021/04/27 01:02:39;;;;;;;4.57;3.17;;;6.90;45.20;;;;;;5057250;28;20028;-63
2021/04/27 01:05:12;;;;;;;3.95;3.20;;;6.90;45.10;;;;;;5063784;28;20051;-63
2021/04/27 01:07:49;;;;;;;3.67;2.83;;;6.90;45.30;;;;;;5064468;28;20037;-63
2021/04/27 01:10:22;;;;;;;4.47;3.20;;;6.90;45.30;;;;;;5060497;28;20112;-63
2021/04/27 01:12:56;;;;;;;5.75;3.33;;;6.90;45.30;;;;;;5054459;28;20037;-63
2021/04/27 01:15:29;;;;;;;3.83;2.85;;;6.90;46.00;;;;;;5064830;28;20058;-63
2021/04/27 01:18:03;;;;;;;8.25;3.30;;;6.90;45.40;;;;;;5066452;28;20040;-62
2021/04/27 01:20:48;;;;;;;5.13;3.30;;;6.90;45.30;;;;;;5060465;28;20472;-63
2021/04/27 01:23:25;;;;;;;3.40;2.88;;;6.90;45.30;;;;;;5064463;28;20404;-63
2021/04/27 01:26:05;;;;;;;3.90;2.90;;;6.90;45.50;;;;;;5065420;28;20032;-63
2021/04/27 01:28:35;;;;;;;3.92;3.33;;;6.80;45.40;;;;;;5058854;28;20045;-63
2021/04/27 01:31:07;;;;;;;4.72;3.22;;;6.80;45.40;;;;;;5058057;28;20820;-63
2021/04/27 01:33:35;;;;;;;3.95;2.97;;;6.80;45.60;;;;;;5061908;28;20547;-63
2021/04/27 01:36:07;;;;;;;5.03;2.85;;;6.80;45.50;;;;;;5060303;28;20060;-62
2021/04/27 01:38:35;;;;;;;5.32;2.97;;;6.80;45.70;;;;;;5058686;28;20037;-63
2021/04/27 01:41:01;;;;;;;5.40;3.00;;;6.70;45.70;;;;;;5059524;28;20059;-63
2021/04/27 01:43:30;;;;;;;4.28;2.70;;;6.70;45.60;;;;;;5059924;28;20043;-63
2021/04/27 01:46:05;;;;;;;4.05;2.95;;;6.70;45.70;;;;;;5064006;28;20113;-63
2021/04/27 01:48:35;;;;;;;4.90;2.97;;;6.70;46.00;;;;;;5058638;28;20043;-63
2021/04/27 01:51:04;;;;;;;4.68;3.13;;;6.70;45.90;;;;;;5060166;28;21890;-63
2021/04/27 01:53:33;;;;;;;6.07;2.75;;;6.60;45.70;;;;;;5061082;28;20039;-62
2021/04/27 01:56:06;;;;;;;4.55;3.03;;;6.60;45.90;;;;;;5057332;28;20032;-62
2021/04/27 01:58:34;;;;;;;3.97;3.03;;;6.60;46.00;;;;;;5059391;28;20115;-63
2021/04/27 02:01:05;;;;;;;3.38;2.78;;;6.60;46.10;;;;;;5059821;28;20075;-62
2021/04/27 02:03:41;;;;;;;6.90;3.00;;;6.50;46.20;;;;;;5060669;28;20033;-63
2021/04/27 02:06:10;;;;;;;6.88;2.95;;;6.50;46.40;;;;;;5065600;28;20025;-63
2021/04/27 02:08:44;;;;;;;4.82;3.40;;;6.50;46.30;;;;;;5061524;28;20120;-62
2021/04/27 02:11:14;;;;;;;4.05;3.03;;;6.50;46.30;;;;;;5057691;28;20613;-63
2021/04/27 02:13:47;;;;;;;6.07;3.35;;;6.50;46.30;;;;;;5058821;28;20029;-63
2021/04/27 02:16:22;;;;;;;5.75;2.90;;;6.50;46.40;;;;;;5058169;28;20045;-63
2021/04/27 02:18:57;;;;;;;4.80;2.85;;;6.50;46.50;;;;;;5060076;28;20037;-63
2021/04/27 02:21:28;;;;;;;5.32;3.15;;;6.50;46.70;;;;;;5054667;28;20108;-63
2021/04/27 02:23:55;;;;;;;5.40;3.05;;;6.50;46.50;;;;;;5062345;28;20067;-63
2021/04/27 02:26:25;;;;;;;6.00;3.30;;;6.50;46.50;;;;;;5057976;28;21768;-64
2021/04/27 02:28:54;;;;;;;4.75;2.92;;;6.50;46.60;;;;;;5058431;28;20076;-62
2021/04/27 02:31:25;;;;;;;4.60;2.67;;;6.50;46.60;;;;;;5056741;28;20498;-62
2021/04/27 02:33:56;;;;;;;4.13;3.03;;;6.40;46.70;;;;;;5060895;28;20490;-63
2021/04/27 02:36:27;;;;;;;6.50;3.05;;;6.40;46.60;;;;;;5064674;28;20460;-63
2021/04/27 02:38:59;;;;;;;5.25;3.10;;;6.40;46.90;;;;;;5060882;28;20036;-63
2021/04/27 02:41:32;;;;;;;4.38;3.10;;;6.40;46.80;;;;;;5066378;28;20060;-62
2021/04/27 02:44:04;;;;;;;4.53;3.17;;;6.30;46.80;;;;;;5067770;28;20386;-62
2021/04/27 02:46:34;;;;;;;6.15;3.05;;;6.30;46.80;;;;;;5063623;28;20047;-63
2021/04/27 02:49:04;;;;;;;3.92;3.00;;;6.30;46.80;;;;;;5082312;28;20040;-63
2021/04/27 02:51:33;;;;;;;3.53;2.97;;;6.30;46.90;;;;;;5060309;28;20028;-63
2021/04/27 02:54:00;;;;;;;4.88;2.80;;;6.20;47.20;;;;;;5062257;28;20036;-63
2021/04/27 02:56:26;;;;;;;6.82;2.78;;;6.20;46.80;;;;;;5065337;28;20032;-63
2021/04/27 02:58:57;;;;;;;4.22;2.90;;;6.20;46.80;;;;;;5067752;28;20045;-63
2021/04/27 03:01:27;;;;;;;6.47;2.70;;;6.20;47.20;;;;;;5060502;28;20056;-63
2021/04/27 03:03:55;;;;;;;4.63;2.40;;;6.10;47.10;;;;;;5061208;28;20047;-63
2021/04/27 03:06:21;;;;;;;2.72;2.40;;;6.10;47.10;;;;;;5061907;28;20025;-63
2021/04/27 03:08:49;;;;;;;6.35;2.63;;;6.10;47.10;;;;;;5067213;28;20525;-63
2021/04/27 03:11:17;;;;;;;3.47;2.75;;;6.00;47.30;;;;;;5060370;28;20044;-63
2021/04/27 03:13:45;;;;;;;5.78;2.83;;;6.00;47.20;;;;;;5067892;28;20029;-61
2021/04/27 03:16:15;;;;;;;3.08;2.72;;;6.00;47.40;;;;;;5059558;28;20047;-62
2021/04/27 03:18:43;;;;;;;3.58;2.58;;;6.00;47.40;;;;;;5065649;28;20078;-63
2021/04/27 03:21:11;;;;;;;3.80;2.72;;;6.00;47.40;;;;;;5064267;28;20033;-63
2021/04/27 03:23:37;;;;;;;3.67;2.72;;;5.90;47.40;;;;;;5067569;28;20107;-61
2021/04/27 03:26:05;;;;;;;3.95;2.70;;;5.90;47.40;;;;;;5066070;28;20636;-63
2021/04/27 03:28:30;;;;;;;4.82;2.97;;;5.90;47.50;;;;;;5063854;28;20032;-63
2021/04/27 03:30:56;;;;;;;3.60;2.95;;;5.90;47.40;;;;;;5062488;28;20034;-63
2021/04/27 03:33:22;;;;;;;4.95;2.75;;;5.80;47.40;;;;;;5060559;28;20021;-63
2021/04/27 03:35:48;;;;;;;4.97;2.75;;;5.80;47.50;;;;;;5057181;28;20032;-63
2021/04/27 03:38:16;;;;;;;3.75;2.63;;;5.80;47.50;;;;;;5057523;28;20041;-62
2021/04/27 03:40:44;;;;;;;3.60;2.65;;;5.70;47.50;;;;;;5056124;28;20119;-63
2021/04/27 03:43:14;;;;;;;5.20;2.80;;;5.70;47.50;;;;;;5056283;28;20095;-63
2021/04/27 03:45:45;;;;;;;6.95;2.92;;;5.70;47.60;;;;;;5056727;28;20036;-62
2021/04/27 03:48:14;;;;;;;3.80;2.90;;;5.60;47.60;;;;;;5055373;28;20041;-62
2021/04/27 03:50:46;;;;;;;5.13;2.55;;;5.70;47.90;;;;;;5060728;28;20052;-63
2021/04/27 03:53:14;;;;;;;6.50;3.60;;;5.60;47.80;;;;;;5064838;28;20040;-63
2021/04/27 03:55:44;;;;;;;4.82;2.65;;;5.60;47.80;;;;;;5058229;28;20047;-63
2021/04/27 03:58:14;;;;;;;7.20;2.80;;;5.60;47.90;;;;;;5052671;28;20036;-64
2021/04/27 04:00:47;;;;;;;5.70;3.08;;;5.50;48.00;;;;;;5064538;28;20028;-63
2021/04/27 04:03:17;;;;;;;4.18;2.83;;;5.50;48.00;;;;;;5055586;28;20044;-63
2021/04/27 04:05:45;;;;;;;6.22;2.53;;;5.50;47.80;;;;;;5055556;28;20036;-63
2021/04/27 04:08:15;;;;;;;4.20;2.90;;;5.50;48.00;;;;;;5063508;28;20120;-64
2021/04/27 04:10:44;;;;;;;3.45;2.60;;;5.50;48.00;;;;;;5060262;28;20538;-63
2021/04/27 04:13:09;;;;;;;3.13;2.83;;;5.50;48.30;;;;;;5061892;28;20045;-63
2021/04/27 04:15:42;;;;;;;5.85;2.75;;;5.40;48.00;;;;;;5064259;28;20033;-63
2021/04/27 04:18:10;;;;;;;5.13;4.10;;;5.40;48.30;;;;;;5059471;28;20116;-64
2021/04/27 04:20:41;;;;;;;5.85;3.00;;;5.40;48.30;;;;;;5063750;28;20025;-63
2021/04/27 04:23:09;;;;;;;5.22;3.13;;;5.30;48.40;;;;;;5062798;28;20127;-62
2021/04/27 04:25:37;;;;;;;4.25;2.80;;;5.30;48.30;;;;;;5060716;28;20025;-61
2021/04/27 04:28:05;;;;;;;6.70;3.40;;;5.30;48.50;;;;;;5050864;28;20120;-63
2021/04/27 04:30:34;;;;;;;5.15;2.95;;;5.30;48.40;;;;;;5053828;28;20042;-61
2021/04/27 04:33:02;;;;;;;4.65;3.35;;;5.30;48.50;;;;;;5059711;28;20032;-63
2021/04/27 04:35:31;;;;;;;5.15;3.65;;;5.20;48.40;;;;;;5063552;28;20029;-63
2021/04/27 04:38:01;;;;;;;4.55;3.22;;;5.20;48.50;;;;;;5067701;28;20528;-62
2021/04/27 04:40:32;;;;;;;5.50;3.17;;;5.20;48.70;;;;;;5063258;28;20067;-62
2021/04/27 04:43:00;;;;;;;5.75;3.45;;;5.20;48.80;;;;;;5064238;28;20107;-62
2021/04/27 04:45:28;;;;;;;3.67;3.05;;;5.10;48.70;;;;;;5065525;28;20148;-62
2021/04/27 04:47:58;;;;;;;5.28;3.22;;;5.20;48.70;;;;;;5066538;28;20037;-63
2021/04/27 04:50:26;;;;;;;5.82;3.30;;;5.10;48.90;;;;;;5065850;28;20044;-61
2021/04/27 04:52:54;;;;;;;9.73;3.53;;;5.10;48.90;;;;;;5065289;28;20029;-61
2021/04/27 04:55:20;;;;;;;7.25;3.30;;;5.10;49.20;;;;;;5066352;28;20040;-63
2021/04/27 04:57:48;;;;;;;5.90;3.25;;;5.10;49.10;;;;;;5066342;28;20032;-62
2021/04/27 05:00:22;;;;;;;8.20;3.70;;;5.10;49.20;;;;;;5066454;28;20033;-63
2021/04/27 05:02:48;;;;;;;5.78;3.40;;;5.10;49.50;;;;;;5065271;28;20501;-64
2021/04/27 05:05:17;;;;;;;4.72;3.17;;;5.10;49.30;;;;;;5067348;28;20037;-61
2021/04/27 05:07:58;;;;;;;8.57;3.72;;;5.10;49.50;;;;;;5063454;28;20115;-63
2021/04/27 05:10:26;;;;;;;5.93;3.33;;;5.10;49.70;;;;;;5059909;28;20037;-62
2021/04/27 05:12:57;;;;;;;4.93;3.28;;;5.10;49.70;;;;;;5064600;28;20032;-62
2021/04/27 05:15:24;;;;;;;6.10;3.75;;;5.10;49.80;;;;;;5064956;28;20025;-63
2021/04/27 05:17:55;;;;;;;6.00;3.30;;;5.20;49.90;;;;;;5066736;28;20028;-62
2021/04/27 05:20:23;;;;;;;5.97;3.45;;;5.20;50.90;;;;;;5065320;28;20024;-65
2021/04/27 05:22:52;;;;;;;3.90;3.20;;;5.20;50.50;;;;;;5059148;28;20028;-63
2021/04/27 05:25:22;;;;;;;6.22;3.70;;;5.30;50.40;;;;;;5065532;28;20122;-65
2021/04/27 05:27:53;;;;;;;6.63;3.63;;;5.30;50.50;;;;;;5066437;28;20032;-63
2021/04/27 05:30:21;;;;;;;5.45;3.40;;;5.40;50.50;;;;;;5064337;28;20029;-63
2021/04/27 05:32:52;;;;;;;6.03;3.58;;;5.40;50.40;;;;;;5063646;28;20043;-62
2021/04/27 05:35:20;;;;;;;5.80;3.70;;;5.50;50.50;;;;;;5065286;28;20536;-63
2021/04/27 05:37:52;;;;;;;5.70;3.45;;;5.60;50.50;;;;;;5066141;28;20037;-63
2021/04/27 05:40:23;;;;;;;6.95;3.70;;;5.60;50.70;;;;;;5066412;28;20021;-64
2021/04/27 05:42:50;;;;;;;7.38;3.47;;;5.70;50.90;;;;;;5063887;28;20032;-63
2021/04/27 05:45:21;;;;;;;5.10;3.58;;;5.70;50.50;;;;;;5064134;28;20032;-61
2021/04/27 05:47:54;;;;;;;7.82;4.28;;;5.80;50.80;;;;;;5064907;28;20044;-59
2021/04/27 05:50:21;;;;;;;10.05;3.80;;;5.90;50.90;;;;;;5065976;28;20037;-61
2021/04/27 05:52:50;;;;;;;4.68;3.50;;;5.90;50.70;;;;;;5064522;28;20032;-61
2021/04/27 05:55:23;;;;;;;12.20;4.00;;;5.90;50.70;;;;;;5065466;28;20033;-59
2021/04/27 05:57:51;;;;;;;6.20;3.90;;;5.90;50.90;;;;;;5066362;28;20032;-62
2021/04/27 06:00:18;;;;;;;5.25;3.45;;;6.00;51.00;;;;;;5063690;28;20037;-62
2021/04/27 06:02:46;;;;;;;8.18;3.67;;;6.00;50.70;;;;;;5062935;28;20041;-60
2021/04/27 06:05:16;;;;;;;5.18;3.63;;;6.10;50.70;;;;;;5065136;28;20082;-61
2021/04/27 06:07:46;;;;;;;6.03;3.30;;;6.10;50.70;;;;;;5061596;28;20044;-61
2021/04/27 06:10:14;;;;;;;9.38;3.70;;;6.20;50.80;;;;;;5065791;28;20043;-61
2021/04/27 06:12:42;;;;;;;6.28;3.70;;;6.30;50.80;;;;;;5062878;28;20032;-62
2021/04/27 06:15:13;;;;;;;5.97;3.53;;;6.40;50.60;;;;;;5067990;28;20041;-62
2021/04/27 06:17:41;;;;;;;15.30;3.85;;;6.40;50.50;;;;;;5065014;28;20048;-62
2021/04/27 06:20:11;;;;;;;7.57;3.85;;;6.60;50.40;;;;;;5068624;28;20372;-62
2021/04/27 06:22:39;;;;;;;7.43;3.65;;;6.60;50.30;;;;;;5083636;28;20037;-62
2021/04/27 06:25:10;;;;;;;7.40;3.85;;;6.70;50.30;;;;;;5068316;28;20108;-62
2021/04/27 06:27:39;;;;;;;9.48;3.78;;;6.80;50.40;;;;;;5069371;28;20492;-62
2021/04/27 06:30:12;;;;;;;5.65;3.90;;;6.80;50.30;;;;;;5068760;28;20106;-62
2021/04/27 06:32:40;;;;;;;8.18;3.97;;;6.90;50.20;;;;;;5066612;28;20338;-60
2021/04/27 06:35:11;;;;;;;6.10;4.20;;;6.90;50.00;;;;;;5068947;28;20028;-62
2021/04/27 06:37:41;;;;;;;5.30;3.92;;;7.00;50.10;;;;;;5069943;28;20116;-62
2021/04/27 06:40:10;;;;;;;4.53;3.85;;;7.00;50.10;;;;;;5067780;28;20041;-62
2021/04/27 06:42:38;;;;;;;5.15;3.65;;;7.10;50.00;;;;;;5068469;28;20532;-62
2021/04/27 06:45:09;;;;;;;9.23;3.95;;;7.20;50.00;;;;;;5069951;28;20033;-61
2021/04/27 06:47:35;;;;;;;5.82;4.15;;;7.20;49.90;;;;;;5069559;28;20033;-60
2021/04/27 06:50:06;;;;;;;8.90;3.90;;;7.30;49.90;;;;;;5067363;28;20028;-59
2021/04/27 06:52:31;;;;;;;7.90;3.78;;;7.40;49.90;;;;;;5069491;28;20029;-63
2021/04/27 06:55:02;;;;;;;8.63;4.47;;;7.40;49.90;;;;;;5068294;28;20033;-61
2021/04/27 06:57:30;;;;;;;7.95;4.30;;;7.50;50.10;;;;;;5069662;28;20119;-61
2021/04/27 07:00:00;;;;;;;6.10;3.67;;;7.50;50.00;;;;;;5067669;28;20454;-59
2021/04/27 07:02:33;;;;;;;5.95;3.90;;;7.60;50.20;;;;;;5057431;28;20029;-61
2021/04/27 07:05:01;;;;;;;5.97;4.20;;;7.70;50.20;;;;;;5068070;28;20025;-62
2021/04/27 07:07:26;;;;;;;6.18;4.28;;;7.80;50.30;;;;;;5064763;28;20032;-62
2021/04/27 07:09:52;;;;;;;6.30;4.38;;;7.80;50.20;;;;;;5066662;28;20478;-62
2021/04/27 07:12:23;;;;;;;6.72;4.40;;;7.90;50.00;;;;;;5061718;28;20045;-61
2021/04/27 07:14:49;;;;;;;8.52;4.22;;;8.00;50.60;;;;;;5068216;28;20033;-61
2021/04/27 07:17:17;;;;;;;7.38;4.55;;;8.00;49.80;;;;;;5067892;28;20028;-62
2021/04/27 07:19:43;;;;;;;7.13;4.47;;;8.10;49.70;;;;;;5065873;28;20665;-62
2021/04/27 07:22:11;;;;;;;7.10;4.50;;;8.20;49.60;;;;;;5066852;28;20175;-62
2021/04/27 07:24:41;;;;;;;6.18;4.70;;;8.20;49.50;;;;;;5065565;28;20024;-63
2021/04/27 07:27:09;;;;;;;5.80;4.25;;;8.30;49.50;;;;;;5065885;28;20079;-63
2021/04/27 07:29:35;;;;;;;8.13;4.63;;;8.40;49.40;;;;;;5068062;28;20043;-63
2021/04/27 07:32:05;;;;;;;9.98;4.65;;;8.40;49.40;;;;;;5066741;28;20648;-62
2021/04/27 07:34:38;;;;;;;7.07;5.20;;;8.50;49.70;;;;;;5066912;28;20112;-61
2021/04/27 07:37:08;;;;;;;7.57;4.45;;;8.60;49.70;;;;;;5058587;28;20020;-62
2021/04/27 07:39:34;;;;;;;7.95;4.35;;;8.60;49.50;;;;;;5066435;28;20028;-62
2021/04/27 07:42:03;;;;;;;7.47;4.50;;;8.70;49.30;;;;;;5066955;28;20045;-62
2021/04/27 07:44:33;;;;;;;8.20;4.53;;;8.80;49.40;;;;;;5067674;28;20405;-62
2021/04/27 07:47:01;;;;;;;9.85;5.13;;;8.90;49.40;;;;;;5067016;28;20025;-62
2021/04/27 07:49:32;;;;;;;9.98;4.97;;;9.00;49.10;;;;;;5068433;28;20029;-62
2021/04/27 07:52:02;;;;;;;7.13;4.32;;;9.10;49.00;;;;;;5067479;28;20106;-64
2021/04/27 07:54:32;;;;;;;10.05;4.82;;;9.20;48.90;;;;;;5066884;28;20112;-61
2021/04/27 07:57:03;;;;;;;6.65;4.40;;;9.30;49.10;;;;;;5067915;28;20029;-62
2021/04/27 07:59:31;;;;;;;6.50;4.75;;;9.40;48.80;;;;;;5064964;28;20028;-61
2021/04/27 08:02:02;;;;;;;7.70;5.00;;;9.50;48.80;;;;;;5064615;28;20508;-61
2021/04/27 08:04:30;;;;;;;7.45;4.72;;;9.60;48.70;;;;;;5061351;28;20033;-61
2021/04/27 08:06:58;;;;;;;7.55;4.57;;;9.60;48.60;;;;;;5064952;28;20029;-62
2021/04/27 08:09:24;;;;;;;9.93;4.80;;;9.60;48.50;;;;;;5062180;28;20529;-62
2021/04/27 08:11:51;;;;;;;8.02;4.78;;;9.70;48.50;;;;;;5056434;28;20025;-63
2021/04/27 08:14:20;;;;;;;10.50;5.85;;;9.80;48.60;;;;;;5057131;28;20029;-61
2021/04/27 08:16:49;;;;;;;8.35;5.10;;;9.90;48.30;;;;;;5062777;28;20126;-63
2021/04/27 08:19:14;;;;;;;10.02;5.05;;;9.90;48.20;;;;;;5082968;28;20040;-63
2021/04/27 08:21:45;;;;;;;8.57;5.35;;;10.00;48.30;;;;;;5066199;28;20062;-63
2021/04/27 08:24:15;;;;;;;15.48;5.22;;;10.00;48.30;;;;;;5064076;28;20036;-63
2021/04/27 08:26:43;;;;;;;12.75;5.10;;;10.10;48.10;;;;;;5065555;28;20046;-64
2021/04/27 08:29:09;;;;;;;11.32;4.82;;;10.20;48.30;;;;;;5063930;28;20036;-64
2021/04/27 08:31:41;;;;;;;6.07;4.93;;;10.20;48.10;;;;;;5062385;28;20098;-63
2021/04/27 08:34:11;;;;;;;8.98;4.90;;;10.30;48.20;;;;;;5064643;28;20029;-64
2021/04/27 08:36:37;;;;;;;9.05;5.03;;;10.40;48.20;;;;;;5064650;28;20028;-63
2021/04/27 08:39:05;;;;;;;6.80;4.88;;;10.50;48.30;;;;;;5064041;28;20528;-63
2021/04/27 08:41:37;;;;;;;7.10;5.22;;;10.60;47.90;;;;;;5065563;28;20033;-63
2021/04/27 08:44:06;;;;;;;13.98;5.35;;;10.70;47.80;;;;;;5066390;28;20064;-63
2021/04/27 08:46:35;;;;;;;9.07;5.40;;;10.80;47.70;;;;;;5063853;28;20141;-63
2021/04/27 08:49:05;;;;;;;9.75;5.35;;;10.90;47.70;;;;;;5062696;28;20056;-63
2021/04/27 08:51:31;;;;;;;9.23;4.95;;;11.00;47.50;;;;;;5062510;28;20122;-64
2021/04/27 08:53:58;;;;;;;7.80;5.20;;;11.00;47.60;;;;;;5063557;28;20521;-61
2021/04/27 08:56:27;;;;;;;10.48;5.28;;;11.10;47.50;;;;;;5064769;28;20040;-63
2021/04/27 08:58:57;;;;;;;8.80;5.43;;;11.20;47.30;;;;;;5065082;28;20041;-63
2021/04/27 09:01:25;;;;;;;6.93;5.13;;;11.30;47.60;;;;;;5064782;28;20036;-64
2021/04/27 09:03:59;;;;;;;9.52;4.78;;;11.40;47.20;;;;;;5066325;28;20029;-63
2021/04/27 09:06:29;;;;;;;10.55;5.20;;;11.50;47.00;;;;;;5066060;28;20040;-65
2021/04/27 09:08:59;;;;;;;7.70;5.20;;;11.60;46.90;;;;;;5065110;28;20624;-64
2021/04/27 09:11:37;;;;;;;7.03;5.22;;;11.70;46.90;;;;;;5058320;28;20036;-61
2021/04/27 09:14:19;;;;;;;7.15;5.10;;;11.80;46.80;;;;;;5063369;28;20503;-64
2021/04/27 09:16:59;;;;;;;7.03;5.32;;;11.90;46.60;;;;;;5063589;28;20032;-64
2021/04/27 09:19:43;;;;;;;7.47;5.05;;;12.10;46.70;;;;;;5058065;28;20025;-63
2021/04/27 09:22:20;;;;;;;11.30;5.35;;;12.20;46.50;;;;;;5063059;28;20032;-63
2021/04/27 09:24:53;;;;;;;9.48;5.70;;;12.30;46.40;;;;;;5064627;28;20028;-62
2021/04/27 09:27:40;;;;;;;8.70;5.05;;;12.40;46.50;;;;;;5064956;28;20032;-63
2021/04/27 09:30:27;;;;;;;7.05;5.43;;;12.60;46.40;;;;;;5065258;28;20028;-62
2021/04/27 09:32:56;;;;;;;6.82;5.20;;;12.70;46.20;;;;;;5065903;28;20549;-62
2021/04/27 09:35:32;;;;;;;16.33;5.85;;;12.80;45.90;;;;;;5065857;28;20029;-63
2021/04/27 09:38:15;;;;;;;7.38;5.18;;;12.90;45.90;;;;;;5058687;28;20460;-63
2021/04/27 09:41:02;;;;;;;19.60;6.55;;;13.10;45.70;;;;;;5062413;28;20025;-63
2021/04/27 09:43:34;;;;;;;8.48;6.18;;;13.20;44.80;;;;;;5065539;28;20024;-63
2021/04/27 09:46:05;;;;;;;10.68;6.13;;;13.30;45.40;;;;;;5060856;28;20111;-63
2021/04/27 09:48:36;;;;;;;10.55;5.80;;;13.40;45.10;;;;;;5063483;28;20421;-64
2021/04/27 09:51:19;;;;;;;7.75;5.75;;;13.50;45.20;;;;;;5057538;28;20036;-63
2021/04/27 09:53:55;;;;;;;7.30;5.78;;;13.60;45.00;;;;;;5064833;28;20119;-63
2021/04/27 09:56:54;;;;;;;7.55;5.95;;;13.70;45.00;;;;;;5063432;28;20303;-63
2021/04/27 09:59:31;;;;;;;11.43;6.35;;;13.80;44.60;;;;;;5047123;28;20572;-63
2021/04/27 10:02:01;;;;;;;7.47;5.72;;;13.90;44.10;;;;;;5065841;28;20025;-64
2021/04/27 10:04:29;;;;;;;8.40;5.70;;;14.00;44.20;;;;;;5066071;28;20063;-62
2021/04/27 10:07:00;;;;;;;10.85;5.97;;;14.10;44.00;;;;;;5065813;28;20090;-62
2021/04/27 10:09:29;;;;;;;8.20;5.47;;;14.20;43.70;;;;;;5066713;28;20035;-62
2021/04/27 10:11:58;;;;;;;9.32;6.60;;;14.30;43.70;;;;;;5058808;28;20569;-64
2021/04/27 10:14:26;;;;;;;7.13;5.30;;;14.30;43.00;;;;;;5064570;28;20056;-64
2021/04/27 10:16:56;;;;;;;8.07;5.85;;;14.40;43.30;;;;;;5066441;28;20021;-63
2021/04/27 10:19:29;;;;;;;7.10;5.70;;;14.50;43.40;;;;;;5066006;28;20428;-63
2021/04/27 10:21:59;;;;;;;10.35;5.97;;;14.60;43.00;;;;;;5066452;28;20052;-64
2021/04/27 10:24:30;;;;;;;6.75;5.72;;;14.60;42.70;;;;;;5061873;28;20706;-64
2021/04/27 10:26:59;;;;;;;8.15;5.68;;;14.80;42.50;;;;;;5065929;28;20036;-63
2021/04/27 10:29:30;;;;;;;7.13;5.50;;;14.90;42.50;;;;;;5066062;28;20024;-63
2021/04/27 10:32:17;;;;;;;6.53;5.82;;;14.90;42.30;;;;;;5059645;28;20119;-63
2021/04/27 10:35:05;;;;;;;8.82;5.82;;;15.00;41.40;;;;;;5062192;28;20488;-62
2021/04/27 10:38:06;;;;;;;7.20;5.45;;;15.10;42.60;;;;;;5062487;28;20033;-64
2021/04/27 10:40:55;;;;;;;7.35;5.22;;;15.30;41.70;;;;;;5064216;28;20048;-64
2021/04/27 10:43:27;;;;;;;6.95;5.50;;;15.40;42.00;;;;;;5064002;28;20028;-64
2021/04/27 10:46:00;;;;;;;8.43;6.13;;;15.50;41.50;;;;;;5063883;28;20036;-64
2021/04/27 10:48:46;;;;;;;9.32;6.35;;;15.60;41.10;;;;;;5055916;28;20036;-65
2021/04/27 10:51:26;;;;;;;9.55;6.75;;;15.70;41.00;;;;;;5064873;28;20036;-64
2021/04/27 10:54:23;;;;;;;10.57;6.38;;;15.70;40.40;;;;;;5063700;28;20040;-64
2021/04/27 10:57:13;;;;;;;7.30;6.05;;;15.80;40.40;;;;;;5060430;28;20029;-63
2021/04/27 10:59:55;;;;;;;6.45;5.82;;;15.90;40.60;;;;;;5068537;28;20025;-64
2021/04/27 11:02:30;;;;;;;9.55;6.78;;;16.00;40.30;;;;;;5067775;28;20517;-63
2021/04/27 11:05:01;;;;;;;7.25;5.80;;;16.00;39.90;;;;;;5066969;28;20036;-64
2021/04/27 11:07:32;;;;;;;8.43;6.07;;;16.10;40.00;;;;;;5061466;28;20152;-64
2021/04/27 11:10:06;;;;;;;7.75;5.97;;;16.10;40.00;;;;;;5067926;28;20123;-65
2021/04/27 11:12:40;;;;;;;8.85;5.88;;;16.20;40.00;;;;;;5063930;28;20036;-64
2021/04/27 11:15:11;;;;;;;8.53;6.20;;;16.20;39.80;;;;;;5068020;28;20029;-65
2021/04/27 11:17:43;;;;;;;7.10;5.63;;;16.30;39.60;;;;;;5068065;28;20287;-65
2021/04/27 11:20:32;;;;;;;7.97;6.18;;;16.30;39.40;;;;;;5066356;28;20056;-64
2021/04/27 11:23:00;;;;;;;10.25;5.78;;;16.40;39.60;;;;;;5065326;28;20052;-65
2021/04/27 11:25:35;;;;;;;7.13;5.88;;;16.40;39.60;;;;;;5068394;28;20520;-62
2021/04/27 11:28:03;;;;;;;8.52;6.22;;;16.50;39.10;;;;;;5067673;28;20083;-64
2021/04/27 11:30:36;;;;;;;7.50;6.40;;;16.50;39.00;;;;;;5067587;28;20106;-65
2021/04/27 11:33:07;;;;;;;9.00;6.22;;;16.60;39.00;;;;;;5065917;28;20106;-62
2021/04/27 11:35:43;;;;;;;7.18;5.93;;;16.60;39.00;;;;;;5067346;28;20034;-64
2021/04/27 11:38:13;;;;;;;7.82;6.55;;;16.60;38.70;;;;;;5067592;28;20119;-64
2021/04/27 11:40:41;;;;;;;10.30;5.65;;;16.70;38.80;;;;;;5066912;28;20413;-64
2021/04/27 11:43:14;;;;;;;10.70;6.38;;;16.80;39.10;;;;;;5066773;28;20151;-65
2021/04/27 11:45:50;;;;;;;7.97;5.85;;;16.80;39.00;;;;;;5058589;28;20029;-65
2021/04/27 11:48:20;;;;;;;12.00;6.15;;;16.90;39.00;;;;;;5063785;28;20052;-62
2021/04/27 11:50:49;;;;;;;9.20;6.45;;;16.90;38.90;;;;;;5059467;28;20534;-63
2021/04/27 11:53:25;;;;;;;11.10;7.03;;;17.00;38.90;;;;;;5064637;28;20509;-62
2021/04/27 11:56:00;;;;;;;11.70;6.57;;;17.10;39.00;;;;;;5061977;28;20124;-62
2021/04/27 11:58:32;;;;;;;11.35;6.22;;;17.10;38.50;;;;;;5065634;28;20033;-63
2021/04/27 12:01:11;;;;;;;6.75;5.78;;;17.20;38.50;;;;;;5067279;28;20029;-64
2021/04/27 12:03:44;;;;;;;8.55;6.00;;;17.20;38.10;;;;;;5067358;28;20033;-64
2021/04/27 12:06:16;;;;;;;9.60;6.03;;;17.30;38.10;;;;;;5066795;28;20086;-64
2021/04/27 12:08:49;;;;;;;7.88;6.25;;;17.30;38.20;;;;;;5067554;28;20093;-64
2021/04/27 12:11:22;;;;;;;9.43;6.22;;;17.30;38.10;;;;;;5059424;28;20028;-62
2021/04/27 12:13:53;;;;;;;7.25;6.13;;;17.30;38.00;;;;;;5065726;28;20044;-62
2021/04/27 12:16:26;;;;;;;10.40;6.75;;;17.40;38.00;;;;;;5067104;28;20041;-64
2021/04/27 12:19:08;;;;;;;12.13;6.50;;;17.40;37.90;;;;;;5064413;28;20056;-62
2021/04/27 12:21:43;;;;;;;7.78;5.35;;;17.40;37.40;;;;;;5064519;28;20056;-63
2021/04/27 12:24:14;;;;;;;8.02;5.82;;;17.40;37.90;;;;;;5065774;28;20033;-64
2021/04/27 12:26:50;;;;;;;8.35;6.10;;;17.50;37.70;;;;;;5065456;28;20032;-63
2021/04/27 12:29:26;;;;;;;8.45;5.78;;;17.50;37.70;;;;;;5065044;28;20382;-63
2021/04/27 12:31:53;;;;;;;9.40;5.40;;;17.60;37.60;;;;;;5061860;28;20028;-64
2021/04/27 12:34:21;;;;;;;5.40;4.88;;;17.70;37.80;;;;;;5065766;28;20037;-65
2021/04/27 12:36:51;;;;;;;5.97;5.20;;;17.70;37.90;;;;;;5065494;28;20033;-64
2021/04/27 12:39:22;;;;;;;6.32;5.72;;;17.70;37.30;;;;;;5065406;28;20115;-65
2021/04/27 12:41:51;;;;;;;10.05;6.07;;;17.80;37.10;;;;;;5066251;28;20452;-64
2021/04/27 12:44:36;;;;;;;11.90;6.00;;;17.80;37.20;;;;;;5066581;28;20352;-64
2021/04/27 12:47:14;;;;;;;8.80;5.82;;;17.80;37.00;;;;;;5064893;28;20036;-64
2021/04/27 12:49:43;;;;;;;10.88;6.00;;;17.90;37.20;;;;;;5067734;28;20154;-64
2021/04/27 12:52:19;;;;;;;9.68;6.53;;;17.80;36.80;;;;;;5066226;28;20041;-64
2021/04/27 12:54:59;;;;;;;7.22;5.10;;;17.80;36.60;;;;;;5064695;28;20043;-64
2021/04/27 12:57:27;;;;;;;7.53;5.63;;;17.80;36.90;;;;;;5064537;28;20587;-64
2021/04/27 13:00:01;;;;;;;6.63;5.68;;;17.80;37.10;;;;;;5065645;28;20056;-64
2021/04/27 13:02:31;;;;;;;10.35;6.45;;;17.80;37.20;;;;;;5063487;28;20464;-64
2021/04/27 13:05:04;;;;;;;9.88;6.60;;;17.90;36.60;;;;;;5065912;28;20067;-64
2021/04/27 13:07:37;;;;;;;7.70;4.95;;;17.90;37.50;;;;;;5065433;28;20032;-64
2021/04/27 13:10:13;;;;;;;7.03;5.15;;;17.90;36.90;;;;;;5064851;28;20098;-64
2021/04/27 13:12:45;;;;;;;6.63;4.88;;;18.00;36.70;;;;;;5060263;28;20041;-64